createdAt,value
2018-04-08T00:00:53.396Z,11.40
2018-04-08T00:03:20.845Z,11.40
2018-04-08T00:05:48.291Z,11.30
2018-04-08T00:08:15.744Z,11.30
2018-04-08T00:10:43.204Z,11.30
2018-04-08T00:13:10.674Z,11.40
2018-04-08T00:15:38.117Z,11.40
2018-04-08T00:18:05.613Z,11.30
2018-04-08T00:20:33.074Z,11.30
2018-04-08T00:23:00.518Z,11.30
2018-04-08T00:25:27.954Z,11.20
2018-04-08T00:27:55.416Z,11.30
2018-04-08T00:30:22.848Z,11.30
2018-04-08T00:32:50.300Z,11.20
2018-04-08T00:35:17.756Z,11.10
2018-04-08T00:37:45.221Z,11.10
2018-04-08T00:40:12.669Z,11.10
2018-04-08T00:42:40.125Z,11.10
2018-04-08T00:45:07.574Z,11.10
2018-04-08T00:47:35.796Z,10.90
2018-04-08T00:50:03.256Z,10.90
2018-04-08T00:52:30.713Z,10.90
2018-04-08T00:54:58.228Z,10.70
2018-04-08T00:57:25.693Z,10.70
2018-04-08T00:59:53.133Z,10.70
2018-04-08T01:02:21.360Z,10.60
2018-04-08T01:04:48.805Z,10.50
2018-04-08T01:07:16.253Z,10.50
2018-04-08T01:09:43.697Z,10.50
2018-04-08T01:12:11.183Z,10.50
2018-04-08T01:14:38.621Z,10.60
2018-04-08T01:17:06.074Z,10.60
2018-04-08T01:19:33.521Z,10.60
2018-04-08T01:22:00.979Z,10.60
2018-04-08T01:24:28.435Z,10.60
2018-04-08T01:26:55.892Z,10.70
2018-04-08T01:29:23.348Z,10.70
2018-04-08T01:31:50.806Z,10.70
2018-04-08T01:34:19.021Z,10.70
2018-04-08T01:36:46.456Z,10.70
2018-04-08T01:39:13.912Z,10.70
2018-04-08T01:41:41.357Z,10.70
2018-04-08T01:44:08.828Z,10.60
2018-04-08T01:46:36.289Z,10.60
2018-04-08T01:49:03.740Z,10.70
2018-04-08T01:51:31.184Z,10.70
2018-04-08T01:53:58.645Z,10.70
2018-04-08T01:56:26.139Z,10.70
2018-04-08T01:58:53.618Z,10.60
2018-04-08T02:01:21.145Z,10.50
2018-04-08T02:03:48.646Z,10.50
2018-04-08T02:06:16.093Z,10.40
2018-04-08T02:08:43.561Z,10.40
2018-04-08T02:11:11.272Z,10.30
2018-04-08T02:13:38.760Z,10.40
2018-04-08T02:16:06.210Z,10.40
2018-04-08T02:18:33.678Z,10.30
2018-04-08T02:21:01.122Z,10.40
2018-04-08T02:23:28.572Z,10.30
2018-04-08T02:25:56.054Z,10.30
2018-04-08T02:28:23.518Z,10.40
2018-04-08T02:30:50.981Z,10.30
2018-04-08T02:33:18.734Z,10.40
2018-04-08T02:35:46.205Z,10.40
2018-04-08T02:38:13.681Z,10.50
2018-04-08T02:40:41.895Z,10.30
2018-04-08T02:43:09.341Z,10.30
2018-04-08T02:45:36.800Z,10.30
2018-04-08T02:48:04.245Z,10.30
2018-04-08T02:50:31.705Z,10.30
2018-04-08T02:52:59.149Z,10.20
2018-04-08T02:55:26.618Z,10.10
2018-04-08T02:57:54.117Z,10.00
2018-04-08T03:00:21.624Z,10.00
2018-04-08T03:02:49.073Z,10.00
2018-04-08T03:05:17.312Z,9.90
2018-04-08T03:07:44.767Z,9.90
2018-04-08T03:10:12.234Z,9.90
2018-04-08T03:12:39.684Z,9.90
2018-04-08T03:15:07.147Z,9.90
2018-04-08T03:17:34.601Z,9.90
2018-04-08T03:20:02.060Z,9.90
2018-04-08T03:22:29.515Z,9.90
2018-04-08T03:24:56.975Z,9.90
2018-04-08T03:27:24.428Z,9.90
2018-04-08T03:29:51.896Z,9.90
2018-04-08T03:32:19.346Z,9.90
2018-04-08T03:34:46.809Z,9.90
2018-04-08T03:37:14.265Z,9.80
2018-04-08T03:39:41.722Z,9.70
2018-04-08T03:42:09.198Z,9.60
2018-04-08T03:44:37.406Z,9.50
2018-04-08T03:47:04.852Z,9.50
2018-04-08T03:49:32.305Z,9.50
2018-04-08T03:51:59.753Z,9.50
2018-04-08T03:54:27.974Z,9.50
2018-04-08T03:56:55.442Z,9.50
2018-04-08T03:59:22.870Z,9.60
2018-04-08T04:01:51.113Z,9.50
2018-04-08T04:04:19.322Z,9.50
2018-04-08T04:06:46.794Z,9.40
2018-04-08T04:09:14.234Z,9.50
2018-04-08T04:11:41.706Z,9.50
2018-04-08T04:14:09.171Z,9.50
2018-04-08T04:16:36.671Z,9.50
2018-04-08T04:19:16.641Z,9.50
2018-04-08T04:24:54.044Z,9.50
2018-04-08T04:27:22.257Z,9.60
2018-04-08T04:29:49.726Z,9.50
2018-04-08T04:32:17.185Z,9.60
2018-04-08T04:34:44.650Z,9.60
2018-04-08T04:37:12.135Z,9.60
2018-04-08T04:39:39.610Z,9.70
2018-04-08T04:42:07.062Z,9.70
2018-04-08T04:44:35.287Z,9.70
2018-04-08T04:47:02.733Z,9.70
2018-04-08T04:49:30.165Z,9.80
2018-04-08T04:51:57.661Z,9.80
2018-04-08T04:54:25.131Z,9.80
2018-04-08T04:56:52.572Z,9.80
2018-04-08T04:59:20.024Z,9.80
2018-04-08T05:01:47.480Z,9.80
2018-04-08T05:04:14.917Z,9.70
2018-04-08T05:06:42.368Z,9.80
2018-04-08T05:09:09.820Z,9.80
2018-04-08T05:11:38.049Z,9.90
2018-04-08T05:14:05.498Z,9.80
2018-04-08T05:16:32.959Z,9.80
2018-04-08T05:19:00.416Z,9.80
2018-04-08T05:21:27.858Z,9.80
2018-04-08T05:23:55.365Z,9.90
2018-04-08T05:26:22.802Z,10.00
2018-04-08T05:28:50.280Z,10.00
2018-04-08T05:31:18.513Z,10.00
2018-04-08T05:33:45.983Z,10.00
2018-04-08T05:36:13.450Z,10.20
2018-04-08T05:38:41.706Z,10.30
2018-04-08T05:41:09.176Z,10.40
2018-04-08T05:43:36.648Z,10.40
2018-04-08T05:46:04.117Z,10.60
2018-04-08T05:48:31.576Z,10.60
2018-04-08T05:50:59.909Z,10.80
2018-04-08T05:53:27.369Z,10.80
2018-04-08T05:55:54.869Z,10.90
2018-04-08T05:58:22.323Z,10.90
2018-04-08T06:00:50.546Z,11.00
2018-04-08T06:03:18.020Z,11.00
2018-04-08T06:05:45.478Z,11.00
2018-04-08T06:08:12.937Z,11.00
2018-04-08T06:10:40.427Z,11.00
2018-04-08T06:13:08.682Z,11.20
2018-04-08T06:15:36.136Z,11.10
2018-04-08T06:18:03.597Z,11.20
2018-04-08T06:20:31.804Z,11.40
2018-04-08T06:23:00.044Z,11.50
2018-04-08T06:25:27.508Z,11.40
2018-04-08T06:27:54.972Z,11.50
2018-04-08T06:30:22.434Z,11.50
2018-04-08T06:32:49.889Z,11.60
2018-04-08T06:35:17.366Z,11.70
2018-04-08T06:37:45.610Z,11.90
2018-04-08T06:40:13.104Z,11.90
2018-04-08T06:42:41.336Z,12.00
2018-04-08T06:45:08.815Z,12.00
2018-04-08T06:47:36.274Z,12.10
2018-04-08T06:50:03.741Z,12.20
2018-04-08T06:52:31.959Z,12.40
2018-04-08T06:54:59.443Z,12.40
2018-04-08T06:57:26.963Z,12.50
2018-04-08T06:59:54.440Z,12.70
2018-04-08T07:02:21.893Z,12.80
2018-04-08T07:04:49.353Z,12.90
2018-04-08T07:07:16.803Z,12.90
2018-04-08T07:09:44.407Z,13.00
2018-04-08T07:12:11.907Z,13.10
2018-04-08T07:14:40.137Z,13.30
2018-04-08T07:17:07.604Z,13.30
2018-04-08T07:19:35.068Z,13.30
2018-04-08T07:22:02.517Z,13.30
2018-04-08T07:24:29.981Z,13.50
2018-04-08T07:26:57.416Z,13.70
2018-04-08T07:29:25.657Z,14.00
2018-04-08T07:31:53.104Z,14.00
2018-04-08T07:34:20.571Z,14.20
2018-04-08T07:36:48.022Z,14.40
2018-04-08T07:39:15.489Z,14.60
2018-04-08T07:41:42.974Z,14.90
2018-04-08T07:44:10.475Z,15.10
2018-04-08T07:46:37.885Z,15.30
2018-04-08T07:49:05.325Z,15.60
2018-04-08T07:51:32.800Z,16.20
2018-04-08T07:54:00.242Z,17.00
2018-04-08T07:56:27.720Z,17.70
2018-04-08T07:58:55.206Z,18.40
2018-04-08T08:01:22.658Z,19.20
2018-04-08T08:03:50.104Z,19.70
2018-04-08T08:06:17.560Z,20.30
2018-04-08T08:08:45.013Z,20.90
2018-04-08T08:11:12.475Z,21.40
2018-04-08T08:13:39.937Z,21.70
2018-04-08T08:16:07.405Z,22.20
2018-04-08T08:18:34.853Z,22.50
2018-04-08T08:21:02.304Z,22.90
2018-04-08T08:23:29.766Z,23.20
2018-04-08T08:25:57.220Z,23.60
2018-04-08T08:28:24.662Z,23.80
2018-04-08T08:30:52.121Z,24.20
2018-04-08T08:33:20.125Z,24.60
2018-04-08T08:35:47.596Z,24.60
2018-04-08T08:38:15.099Z,25.00
2018-04-08T08:40:42.493Z,25.20
2018-04-08T08:43:10.704Z,25.80
2018-04-08T08:45:41.206Z,25.70
2018-04-08T08:48:08.712Z,25.70
2018-04-08T08:50:36.184Z,25.60
2018-04-08T08:53:03.636Z,25.60
2018-04-08T08:55:31.091Z,26.00
2018-04-08T08:57:58.538Z,26.00
2018-04-08T09:00:26.013Z,26.00
2018-04-08T09:02:53.472Z,26.20
2018-04-08T09:05:20.943Z,26.50
2018-04-08T09:07:48.417Z,26.40
2018-04-08T09:10:15.879Z,26.50
2018-04-08T09:12:43.338Z,26.40
2018-04-08T09:15:11.560Z,26.50
2018-04-08T09:17:39.052Z,26.50
2018-04-08T09:20:11.287Z,26.60
2018-04-08T09:25:42.870Z,27.20
2018-04-08T09:28:10.344Z,27.40
2018-04-08T09:30:37.815Z,27.70
2018-04-08T09:33:05.284Z,27.60
2018-04-08T09:35:32.727Z,27.60
2018-04-08T09:38:00.183Z,27.80
2018-04-08T09:40:27.637Z,27.80
2018-04-08T09:42:55.097Z,28.10
2018-04-08T09:45:22.539Z,27.70
2018-04-08T09:47:50.001Z,27.90
2018-04-08T09:50:17.439Z,27.90
2018-04-08T09:52:44.888Z,27.80
2018-04-08T09:55:12.374Z,27.60
2018-04-08T09:57:49.744Z,27.80
2018-04-08T10:03:19.625Z,28.20
2018-04-08T10:05:47.841Z,28.10
2018-04-08T10:08:15.289Z,28.00
2018-04-08T10:10:42.732Z,28.50
2018-04-08T10:13:10.220Z,28.90
2018-04-08T10:15:37.661Z,28.70
2018-04-08T10:18:05.123Z,28.60
2018-04-08T10:20:32.573Z,28.40
2018-04-08T10:23:00.033Z,28.40
2018-04-08T10:25:27.481Z,28.60
2018-04-08T10:27:55.693Z,28.80
2018-04-08T10:30:23.150Z,28.80
2018-04-08T10:32:50.948Z,28.50
2018-04-08T10:35:18.403Z,28.20
2018-04-08T10:37:45.856Z,28.60
2018-04-08T10:40:13.298Z,28.60
2018-04-08T10:42:40.766Z,28.30
2018-04-08T10:45:08.222Z,28.50
2018-04-08T10:47:35.678Z,28.20
2018-04-08T10:50:03.138Z,28.10
2018-04-08T10:52:30.592Z,28.30
2018-04-08T10:54:58.044Z,28.40
2018-04-08T10:57:25.498Z,28.40
2018-04-08T10:59:52.950Z,28.20
2018-04-08T11:02:20.400Z,28.30
2018-04-08T11:04:47.865Z,28.30
2018-04-08T11:07:15.675Z,28.40
2018-04-08T11:09:43.909Z,28.90
2018-04-08T11:12:11.421Z,28.80
2018-04-08T11:14:38.889Z,28.60
2018-04-08T11:17:06.335Z,28.30
2018-04-08T11:19:33.794Z,28.20
2018-04-08T11:22:01.258Z,28.20
2018-04-08T11:24:28.736Z,28.20
2018-04-08T11:26:56.237Z,28.40
2018-04-08T11:29:23.691Z,28.50
2018-04-08T11:31:51.141Z,28.40
2018-04-08T11:34:18.601Z,28.50
2018-04-08T11:36:46.055Z,28.60
2018-04-08T11:39:13.503Z,28.40
2018-04-08T11:41:40.969Z,27.90
2018-04-08T11:44:08.442Z,27.80
2018-04-08T11:46:35.889Z,27.70
2018-04-08T11:49:03.346Z,27.80
2018-04-08T11:51:30.799Z,27.70
2018-04-08T11:53:58.263Z,27.60
2018-04-08T11:56:25.714Z,27.60
2018-04-08T11:58:53.185Z,27.50
2018-04-08T12:01:20.667Z,27.40
2018-04-08T12:03:48.893Z,27.30
2018-04-08T12:06:16.365Z,27.30
2018-04-08T12:08:43.817Z,27.30
2018-04-08T12:11:11.275Z,27.10
2018-04-08T12:13:38.776Z,27.00
2018-04-08T12:16:06.234Z,26.90
2018-04-08T12:18:33.684Z,26.80
2018-04-08T12:21:01.926Z,26.40
2018-04-08T12:23:29.375Z,26.30
2018-04-08T12:25:56.836Z,26.40
2018-04-08T12:28:24.276Z,26.40
2018-04-08T12:30:51.744Z,26.00
2018-04-08T12:33:19.417Z,26.00
2018-04-08T12:35:46.884Z,26.00
2018-04-08T12:38:14.339Z,25.90
2018-04-08T12:40:41.792Z,25.70
2018-04-08T12:43:09.282Z,25.80
2018-04-08T12:45:37.521Z,25.70
2018-04-08T12:48:04.988Z,25.60
2018-04-08T12:50:32.473Z,25.70
2018-04-08T12:52:59.916Z,25.50
2018-04-08T12:55:28.153Z,25.20
2018-04-08T12:58:08.352Z,25.20
2018-04-08T13:00:36.705Z,24.90
2018-04-08T13:03:04.140Z,24.90
2018-04-08T13:05:31.600Z,25.00
2018-04-08T13:07:59.074Z,24.90
2018-04-08T13:10:26.560Z,24.80
2018-04-08T13:12:54.049Z,24.90
2018-04-08T13:15:21.532Z,24.90
2018-04-08T13:17:48.965Z,24.90
2018-04-08T13:20:16.418Z,24.90
2018-04-08T13:22:43.881Z,24.80
2018-04-08T13:25:11.349Z,24.70
2018-04-08T13:27:38.821Z,24.70
2018-04-08T13:30:06.290Z,24.70
2018-04-08T13:32:33.744Z,24.60
2018-04-08T13:35:01.200Z,24.50
2018-04-08T13:37:28.665Z,24.40
2018-04-08T13:39:56.153Z,24.30
2018-04-08T13:42:24.376Z,24.10
2018-04-08T13:44:51.861Z,24.10
2018-04-08T13:47:19.315Z,24.00
2018-04-08T13:49:46.770Z,23.90
2018-04-08T13:52:15.011Z,23.80
2018-04-08T13:54:42.481Z,23.70
2018-04-08T13:57:09.972Z,23.60
2018-04-08T13:59:37.430Z,23.60
2018-04-08T14:02:04.892Z,23.50
2018-04-08T14:04:32.345Z,23.50
2018-04-08T14:06:59.821Z,23.50
2018-04-08T14:09:28.048Z,23.50
2018-04-08T14:11:55.508Z,23.50
2018-04-08T14:14:23.740Z,23.70
2018-04-08T14:16:51.962Z,23.80
2018-04-08T14:19:20.188Z,23.90
2018-04-08T14:21:48.417Z,24.00
2018-04-08T14:24:15.870Z,24.00
2018-04-08T14:26:43.329Z,24.10
2018-04-08T14:29:10.795Z,24.20
2018-04-08T14:31:38.258Z,24.40
2018-04-08T14:34:05.715Z,24.40
2018-04-08T14:36:33.172Z,24.30
2018-04-08T14:39:00.649Z,24.30
2018-04-08T14:41:28.105Z,24.30
2018-04-08T14:43:55.566Z,24.30
2018-04-08T14:46:23.793Z,24.20
2018-04-08T14:48:51.249Z,24.10
2018-04-08T14:51:18.701Z,24.10
2018-04-08T14:53:46.164Z,24.10
2018-04-08T14:56:13.624Z,24.10
2018-04-08T14:58:41.106Z,24.10
2018-04-08T15:01:08.586Z,24.00
2018-04-08T15:03:36.825Z,24.00
2018-04-08T15:06:04.295Z,24.00
2018-04-08T15:08:31.758Z,24.00
2018-04-08T15:10:59.223Z,23.90
2018-04-08T15:13:26.681Z,23.90
2018-04-08T15:15:54.129Z,23.90
2018-04-08T15:18:21.584Z,23.70
2018-04-08T15:20:49.038Z,23.70
2018-04-08T15:23:16.492Z,23.70
2018-04-08T15:25:43.936Z,23.60
2018-04-08T15:28:11.402Z,23.60
2018-04-08T15:30:38.863Z,23.70
2018-04-08T15:33:06.325Z,23.70
2018-04-08T15:35:33.780Z,23.70
2018-04-08T15:38:01.262Z,23.60
2018-04-08T15:40:28.809Z,23.50
2018-04-08T15:42:56.985Z,23.50
2018-04-08T15:45:24.429Z,23.50
2018-04-08T15:47:52.041Z,23.50
2018-04-08T15:50:19.525Z,23.50
2018-04-08T15:52:46.986Z,23.50
2018-04-08T15:55:14.452Z,23.40
2018-04-08T15:57:41.908Z,23.40
2018-04-08T16:00:09.366Z,23.40
2018-04-08T16:02:36.821Z,23.30
2018-04-08T16:05:04.316Z,23.30
2018-04-08T16:07:31.772Z,23.30
2018-04-08T16:09:59.249Z,23.30
2018-04-08T16:12:27.462Z,23.20
2018-04-08T16:14:54.913Z,23.20
2018-04-08T16:17:22.384Z,23.20
2018-04-08T16:19:49.920Z,23.20
2018-04-08T16:22:17.398Z,23.10
2018-04-08T16:24:44.837Z,23.10
2018-04-08T16:27:12.312Z,23.00
2018-04-08T16:29:39.773Z,23.00
2018-04-08T16:32:07.296Z,23.00
2018-04-08T16:34:34.747Z,23.00
2018-04-08T16:37:02.213Z,22.90
2018-04-08T16:39:29.664Z,23.00
2018-04-08T16:41:57.123Z,22.90
2018-04-08T16:44:25.346Z,22.80
2018-04-08T16:46:52.797Z,22.80
2018-04-08T16:49:20.249Z,22.80
2018-04-08T16:51:47.716Z,22.70
2018-04-08T16:54:15.171Z,22.70
2018-04-08T16:56:43.413Z,22.50
2018-04-08T16:59:10.881Z,22.50
2018-04-08T17:01:38.333Z,22.40
2018-04-08T17:04:05.789Z,22.40
2018-04-08T17:06:33.270Z,22.30
2018-04-08T17:09:00.729Z,22.20
2018-04-08T17:11:28.202Z,22.10
2018-04-08T17:13:57.131Z,22.00
2018-04-08T17:16:25.354Z,21.80
2018-04-08T17:18:52.966Z,21.70
2018-04-08T17:21:22.901Z,21.40
2018-04-08T17:23:50.365Z,21.40
2018-04-08T17:26:17.869Z,21.40
2018-04-08T17:28:45.328Z,21.30
2018-04-08T17:31:12.793Z,21.30
2018-04-08T17:33:40.289Z,21.20
2018-04-08T17:36:07.741Z,21.20
2018-04-08T17:38:35.220Z,21.20
2018-04-08T17:41:02.700Z,21.00
2018-04-08T17:43:30.153Z,21.00
2018-04-08T17:45:57.606Z,20.90
2018-04-08T17:48:25.107Z,20.70
2018-04-08T17:50:53.325Z,20.40
2018-04-08T17:53:21.990Z,20.40
2018-04-08T17:55:49.846Z,20.40
2018-04-08T17:58:18.046Z,20.10
2018-04-08T18:00:45.564Z,20.10
2018-04-08T18:03:13.788Z,19.90
2018-04-08T18:05:41.240Z,19.90
2018-04-08T18:08:08.968Z,19.80
2018-04-08T18:10:37.187Z,19.50
2018-04-08T18:13:04.639Z,19.50
2018-04-08T18:15:32.114Z,19.40
2018-04-08T18:17:59.594Z,19.30
2018-04-08T18:20:27.071Z,19.30
2018-04-08T18:22:55.290Z,18.90
2018-04-08T18:25:22.813Z,18.90
2018-04-08T18:27:51.037Z,18.60
2018-04-08T18:30:18.488Z,18.50
2018-04-08T18:32:45.944Z,18.60
2018-04-08T18:35:13.395Z,18.50
2018-04-08T18:37:40.850Z,18.30
2018-04-08T18:40:08.330Z,18.30
2018-04-08T18:42:35.796Z,18.40
2018-04-08T18:45:03.237Z,18.30
2018-04-08T18:47:30.700Z,18.20
2018-04-08T18:49:58.153Z,18.20
2018-04-08T18:52:25.654Z,18.10
2018-04-08T18:54:53.894Z,17.90
2018-04-08T18:57:21.358Z,17.90
2018-04-08T18:59:48.858Z,17.90
2018-04-08T19:02:17.081Z,17.60
2018-04-08T19:04:44.554Z,17.60
2018-04-08T19:07:12.062Z,17.60
2018-04-08T19:09:39.516Z,17.70
2018-04-08T19:12:06.989Z,17.60
2018-04-08T19:14:40.173Z,17.50
2018-04-08T19:17:07.640Z,17.60
2018-04-08T19:19:35.129Z,17.50
2018-04-08T19:22:02.620Z,17.40
2018-04-08T19:24:30.837Z,17.30
2018-04-08T19:26:58.313Z,17.20
2018-04-08T19:29:25.812Z,17.30
2018-04-08T19:31:53.277Z,17.30
2018-04-08T19:34:21.525Z,17.10
2018-04-08T19:36:49.032Z,17.10
2018-04-08T19:39:16.510Z,17.00
2018-04-08T19:41:43.981Z,17.10
2018-04-08T19:44:11.454Z,17.00
2018-04-08T19:46:38.962Z,17.00
2018-04-08T19:49:06.517Z,16.90
2018-04-08T19:51:34.061Z,16.90
2018-04-08T19:54:02.312Z,16.70
2018-04-08T19:56:29.797Z,16.70
2018-04-08T19:58:57.274Z,16.70
2018-04-08T20:01:24.723Z,16.50
2018-04-08T20:03:52.185Z,16.50
2018-04-08T20:06:19.647Z,16.50
2018-04-08T20:08:47.129Z,16.50
2018-04-08T20:11:14.600Z,16.50
2018-04-08T20:13:42.121Z,16.40
2018-04-08T20:16:09.565Z,16.30
2018-04-08T20:18:37.069Z,16.20
2018-04-08T20:21:04.533Z,16.10
2018-04-08T20:23:32.816Z,16.00
2018-04-08T20:26:00.474Z,16.00
2018-04-08T20:28:27.961Z,15.90
2018-04-08T20:30:55.452Z,15.90
2018-04-08T20:33:22.944Z,15.80
2018-04-08T20:35:50.417Z,15.60
2018-04-08T20:38:17.896Z,15.60
2018-04-08T20:40:45.571Z,15.50
2018-04-08T20:43:13.084Z,15.40
2018-04-08T20:45:40.774Z,15.40
2018-04-08T20:48:09.105Z,15.50
2018-04-08T20:50:36.550Z,15.40
2018-04-08T20:53:04.012Z,15.50
2018-04-08T20:55:31.504Z,15.40
2018-04-08T20:57:58.955Z,15.30
2018-04-08T21:00:26.438Z,15.30
2018-04-08T21:02:54.674Z,15.20
2018-04-08T21:05:22.153Z,15.20
2018-04-08T21:07:49.604Z,15.20
2018-04-08T21:10:17.071Z,15.20
2018-04-08T21:12:44.537Z,15.10
2018-04-08T21:15:11.966Z,15.00
2018-04-08T21:17:39.417Z,15.00
2018-04-08T21:20:06.879Z,15.00
2018-04-08T21:22:34.329Z,15.00
2018-04-08T21:25:01.785Z,15.00
2018-04-08T21:27:29.236Z,14.90
2018-04-08T21:29:56.699Z,14.90
2018-04-08T21:32:24.144Z,14.80
2018-04-08T21:34:51.596Z,14.70
2018-04-08T21:37:19.040Z,14.70
2018-04-08T21:39:46.514Z,14.70
2018-04-08T21:42:13.961Z,14.60
2018-04-08T21:44:41.416Z,14.50
2018-04-08T21:47:08.854Z,14.50
2018-04-08T21:49:37.078Z,14.40
2018-04-08T21:52:04.531Z,14.40
2018-04-08T21:54:32.002Z,14.40
2018-04-08T21:56:59.455Z,14.30
2018-04-08T21:59:26.889Z,14.20
2018-04-08T22:01:54.349Z,14.20
2018-04-08T22:04:21.805Z,14.00
2018-04-08T22:06:49.258Z,13.90
2018-04-08T22:09:16.754Z,13.90
2018-04-08T22:11:44.218Z,13.80
2018-04-08T22:14:11.666Z,13.80
2018-04-08T22:16:39.126Z,13.80
2018-04-08T22:19:06.583Z,13.70
2018-04-08T22:21:34.046Z,13.70
2018-04-08T22:24:01.481Z,13.70
2018-04-08T22:26:28.939Z,13.80
2018-04-08T22:28:56.382Z,13.90
2018-04-08T22:31:23.838Z,13.90
2018-04-08T22:33:51.286Z,13.80
2018-04-08T22:36:18.756Z,13.70
2018-04-08T22:38:46.208Z,13.70
2018-04-08T22:41:13.660Z,13.60
2018-04-08T22:43:41.800Z,13.60
2018-04-08T22:46:10.029Z,13.30
2018-04-08T22:48:37.472Z,13.30
2018-04-08T22:51:04.932Z,13.30
2018-04-08T22:53:32.428Z,13.20
2018-04-08T22:55:59.837Z,13.20
2018-04-08T22:58:27.277Z,13.20
2018-04-08T23:00:54.761Z,13.30
2018-04-08T23:03:22.217Z,13.20
2018-04-08T23:05:49.683Z,13.00
2018-04-08T23:08:17.128Z,13.00
2018-04-08T23:10:44.574Z,12.90
2018-04-08T23:13:12.036Z,12.80
2018-04-08T23:15:39.493Z,12.80
2018-04-08T23:18:06.954Z,12.70
2018-04-08T23:20:34.392Z,12.60
2018-04-08T23:23:01.849Z,12.50
2018-04-08T23:25:29.292Z,12.50
2018-04-08T23:27:57.512Z,12.50
2018-04-08T23:30:24.960Z,12.50
2018-04-08T23:32:52.414Z,12.60
2018-04-08T23:35:19.857Z,12.60
2018-04-08T23:37:47.309Z,12.50
2018-04-08T23:40:14.761Z,12.50
2018-04-08T23:42:42.988Z,12.30
2018-04-08T23:45:10.438Z,12.20
2018-04-08T23:47:37.896Z,12.20
2018-04-08T23:50:05.341Z,12.20
2018-04-08T23:52:32.796Z,12.20
2018-04-08T23:55:00.246Z,12.20
2018-04-08T23:57:27.702Z,12.10
2018-04-08T23:59:55.154Z,12.20
